sensor_id;sensor_type;location;lat;lon;timestamp;temperature;humidity
25951;DHT22;13748;52.240;6.002;2022-09-02T00:01:34;15.70;99.90
25951;DHT22;13748;52.240;6.002;2022-09-02T00:04:10;15.80;99.90
25951;DHT22;13748;52.240;6.002;2022-09-02T00:06:39;15.40;99.90
25951;DHT22;13748;52.240;6.002;2022-09-02T00:09:09;15.70;99.90
25951;DHT22;13748;52.240;6.002;2022-09-02T00:11:38;16.50;99.90
25951;DHT22;13748;52.240;6.002;2022-09-02T00:14:09;15.80;99.90
25951;DHT22;13748;52.240;6.002;2022-09-02T00:16:38;15.60;99.90
25951;DHT22;13748;52.240;6.002;2022-09-02T00:19:05;16.90;99.90
25951;DHT22;13748;52.240;6.002;2022-09-02T00:21:36;15.50;99.90
25951;DHT22;13748;52.240;6.002;2022-09-02T00:24:04;15.60;99.90
25951;DHT22;13748;52.240;6.002;2022-09-02T00:26:35;15.40;99.90
25951;DHT22;13748;52.240;6.002;2022-09-02T00:29:04;15.30;99.90
25951;DHT22;13748;52.240;6.002;2022-09-02T00:31:32;15.30;99.90
25951;DHT22;13748;52.240;6.002;2022-09-02T00:36:29;15.20;99.90
25951;DHT22;13748;52.240;6.002;2022-09-02T00:38:56;15.10;99.90
25951;DHT22;13748;52.240;6.002;2022-09-02T00:41:26;15.10;99.90
25951;DHT22;13748;52.240;6.002;2022-09-02T00:44:01;15.00;99.90
25951;DHT22;13748;52.240;6.002;2022-09-02T00:46:31;15.10;99.90
25951;DHT22;13748;52.240;6.002;2022-09-02T00:49:16;15.50;99.90
25951;DHT22;13748;52.240;6.002;2022-09-02T00:54:27;15.40;99.90
25951;DHT22;13748;52.240;6.002;2022-09-02T00:56:56;15.50;99.90
25951;DHT22;13748;52.240;6.002;2022-09-02T01:00:27;15.00;99.90
25951;DHT22;13748;52.240;6.002;2022-09-02T01:02:36;14.90;99.90
25951;DHT22;13748;52.240;6.002;2022-09-02T01:05:07;14.80;99.90
25951;DHT22;13748;52.240;6.002;2022-09-02T01:07:38;14.80;99.90
25951;DHT22;13748;52.240;6.002;2022-09-02T01:10:09;14.70;99.90
25951;DHT22;13748;52.240;6.002;2022-09-02T01:12:37;14.70;99.90
25951;DHT22;13748;52.240;6.002;2022-09-02T01:15:07;14.70;99.90
25951;DHT22;13748;52.240;6.002;2022-09-02T01:17:40;14.60;99.90
25951;DHT22;13748;52.240;6.002;2022-09-02T01:20:13;14.30;99.90
25951;DHT22;13748;52.240;6.002;2022-09-02T01:22:41;14.30;99.90
25951;DHT22;13748;52.240;6.002;2022-09-02T01:25:19;14.60;99.90
25951;DHT22;13748;52.240;6.002;2022-09-02T01:27:47;14.80;99.90
25951;DHT22;13748;52.240;6.002;2022-09-02T01:30:19;14.80;99.90
25951;DHT22;13748;52.240;6.002;2022-09-02T01:32:47;14.50;99.90
25951;DHT22;13748;52.240;6.002;2022-09-02T01:35:19;14.40;99.90
25951;DHT22;13748;52.240;6.002;2022-09-02T01:37:47;14.50;99.90
25951;DHT22;13748;52.240;6.002;2022-09-02T01:40:34;14.50;99.90
25951;DHT22;13748;52.240;6.002;2022-09-02T01:43:07;14.40;99.90
25951;DHT22;13748;52.240;6.002;2022-09-02T01:45:36;14.40;99.90
25951;DHT22;13748;52.240;6.002;2022-09-02T01:48:05;14.40;99.90
25951;DHT22;13748;52.240;6.002;2022-09-02T01:50:51;14.40;99.90
25951;DHT22;13748;52.240;6.002;2022-09-02T01:53:22;14.20;99.90
25951;DHT22;13748;52.240;6.002;2022-09-02T01:55:49;14.40;99.90
25951;DHT22;13748;52.240;6.002;2022-09-02T01:58:18;15.20;99.90
25951;DHT22;13748;52.240;6.002;2022-09-02T02:00:45;14.40;99.90
25951;DHT22;13748;52.240;6.002;2022-09-02T02:03:14;14.40;99.90
25951;DHT22;13748;52.240;6.002;2022-09-02T02:05:44;14.30;99.90
25951;DHT22;13748;52.240;6.002;2022-09-02T02:08:12;14.30;99.90
25951;DHT22;13748;52.240;6.002;2022-09-02T02:10:41;15.10;99.90
25951;DHT22;13748;52.240;6.002;2022-09-02T02:13:08;13.40;99.90
25951;DHT22;13748;52.240;6.002;2022-09-02T02:15:41;14.50;99.90
25951;DHT22;13748;52.240;6.002;2022-09-02T02:18:08;14.20;99.90
25951;DHT22;13748;52.240;6.002;2022-09-02T02:20:38;14.20;99.90
25951;DHT22;13748;52.240;6.002;2022-09-02T02:23:10;14.20;99.90
25951;DHT22;13748;52.240;6.002;2022-09-02T02:25:41;14.20;99.90
25951;DHT22;13748;52.240;6.002;2022-09-02T02:28:08;15.00;99.90
25951;DHT22;13748;52.240;6.002;2022-09-02T02:30:37;14.20;99.90
25951;DHT22;13748;52.240;6.002;2022-09-02T02:33:05;14.30;99.90
25951;DHT22;13748;52.240;6.002;2022-09-02T02:35:32;14.30;99.90
25951;DHT22;13748;52.240;6.002;2022-09-02T02:37:59;14.50;99.90
25951;DHT22;13748;52.240;6.002;2022-09-02T02:40:29;14.80;99.90
25951;DHT22;13748;52.240;6.002;2022-09-02T02:42:57;13.80;99.90
25951;DHT22;13748;52.240;6.002;2022-09-02T02:45:25;14.30;99.90
25951;DHT22;13748;52.240;6.002;2022-09-02T02:48:05;15.00;99.90
25951;DHT22;13748;52.240;6.002;2022-09-02T02:51:06;14.40;99.90
25951;DHT22;13748;52.240;6.002;2022-09-02T02:53:42;14.60;99.90
25951;DHT22;13748;52.240;6.002;2022-09-02T02:56:09;14.50;99.90
25951;DHT22;13748;52.240;6.002;2022-09-02T02:58:43;14.20;99.90
25951;DHT22;13748;52.240;6.002;2022-09-02T03:01:10;13.40;99.90
25951;DHT22;13748;52.240;6.002;2022-09-02T03:03:47;14.90;99.90
25951;DHT22;13748;52.240;6.002;2022-09-02T03:06:16;14.20;99.90
25951;DHT22;13748;52.240;6.002;2022-09-02T03:08:52;14.20;99.90
25951;DHT22;13748;52.240;6.002;2022-09-02T03:11:19;14.20;99.90
25951;DHT22;13748;52.240;6.002;2022-09-02T03:13:50;14.20;99.90
25951;DHT22;13748;52.240;6.002;2022-09-02T03:16:17;14.20;99.90
25951;DHT22;13748;52.240;6.002;2022-09-02T03:18:47;14.20;99.90
25951;DHT22;13748;52.240;6.002;2022-09-02T03:21:15;14.80;99.90
25951;DHT22;13748;52.240;6.002;2022-09-02T03:23:49;14.50;99.90
25951;DHT22;13748;52.240;6.002;2022-09-02T03:26:19;14.20;99.90
25951;DHT22;13748;52.240;6.002;2022-09-02T03:28:47;14.20;99.90
25951;DHT22;13748;52.240;6.002;2022-09-02T03:31:20;14.20;99.90
25951;DHT22;13748;52.240;6.002;2022-09-02T03:33:57;14.20;99.90
25951;DHT22;13748;52.240;6.002;2022-09-02T03:36:33;14.20;99.90
25951;DHT22;13748;52.240;6.002;2022-09-02T03:39:03;14.20;99.90
25951;DHT22;13748;52.240;6.002;2022-09-02T03:41:36;13.80;99.90
25951;DHT22;13748;52.240;6.002;2022-09-02T03:44:03;14.20;99.90
25951;DHT22;13748;52.240;6.002;2022-09-02T03:46:32;14.20;99.90
25951;DHT22;13748;52.240;6.002;2022-09-02T03:49:00;14.10;99.90
25951;DHT22;13748;52.240;6.002;2022-09-02T03:51:31;13.80;99.90
25951;DHT22;13748;52.240;6.002;2022-09-02T03:53:59;14.20;99.90
25951;DHT22;13748;52.240;6.002;2022-09-02T03:56:29;14.20;99.90
25951;DHT22;13748;52.240;6.002;2022-09-02T03:58:56;15.00;99.90
25951;DHT22;13748;52.240;6.002;2022-09-02T04:01:26;14.80;99.90
25951;DHT22;13748;52.240;6.002;2022-09-02T04:04:00;14.80;99.90
25951;DHT22;13748;52.240;6.002;2022-09-02T04:06:30;14.20;99.90
25951;DHT22;13748;52.240;6.002;2022-09-02T04:08:59;14.50;99.90
25951;DHT22;13748;52.240;6.002;2022-09-02T04:14:00;14.30;99.90
25951;DHT22;13748;52.240;6.002;2022-09-02T04:16:29;14.70;99.90
25951;DHT22;13748;52.240;6.002;2022-09-02T04:18:58;14.40;99.90
25951;DHT22;13748;52.240;6.002;2022-09-02T04:21:28;14.40;99.90
25951;DHT22;13748;52.240;6.002;2022-09-02T04:23:57;14.40;99.90
25951;DHT22;13748;52.240;6.002;2022-09-02T04:26:26;14.40;99.90
25951;DHT22;13748;52.240;6.002;2022-09-02T04:28:59;14.40;99.90
25951;DHT22;13748;52.240;6.002;2022-09-02T04:31:30;14.70;99.90
25951;DHT22;13748;52.240;6.002;2022-09-02T04:33:58;14.40;99.90
25951;DHT22;13748;52.240;6.002;2022-09-02T04:36:29;14.40;99.90
25951;DHT22;13748;52.240;6.002;2022-09-02T04:38:57;14.40;99.90
25951;DHT22;13748;52.240;6.002;2022-09-02T04:41:28;14.30;99.90
25951;DHT22;13748;52.240;6.002;2022-09-02T04:43:57;15.20;99.90
25951;DHT22;13748;52.240;6.002;2022-09-02T04:46:25;14.50;99.90
25951;DHT22;13748;52.240;6.002;2022-09-02T04:49:02;14.40;99.90
25951;DHT22;13748;52.240;6.002;2022-09-02T04:51:30;15.10;99.90
25951;DHT22;13748;52.240;6.002;2022-09-02T04:53:59;14.50;99.90
25951;DHT22;13748;52.240;6.002;2022-09-02T04:56:28;14.70;99.90
25951;DHT22;13748;52.240;6.002;2022-09-02T04:58:56;14.70;99.90
25951;DHT22;13748;52.240;6.002;2022-09-02T05:01:28;14.60;99.90
25951;DHT22;13748;52.240;6.002;2022-09-02T05:03:58;15.10;99.90
25951;DHT22;13748;52.240;6.002;2022-09-02T05:06:28;15.40;99.90
25951;DHT22;13748;52.240;6.002;2022-09-02T05:09:02;14.50;99.90
25951;DHT22;13748;52.240;6.002;2022-09-02T05:11:34;15.00;99.90
25951;DHT22;13748;52.240;6.002;2022-09-02T05:14:05;15.10;99.90
25951;DHT22;13748;52.240;6.002;2022-09-02T05:16:39;15.00;99.90
25951;DHT22;13748;52.240;6.002;2022-09-02T05:19:11;15.10;99.90
25951;DHT22;13748;52.240;6.002;2022-09-02T05:21:46;14.40;99.90
25951;DHT22;13748;52.240;6.002;2022-09-02T05:26:52;14.80;99.90
25951;DHT22;13748;52.240;6.002;2022-09-02T05:29:22;15.00;99.90
25951;DHT22;13748;52.240;6.002;2022-09-02T05:31:50;15.50;99.90
25951;DHT22;13748;52.240;6.002;2022-09-02T05:34:24;15.30;99.90
25951;DHT22;13748;52.240;6.002;2022-09-02T05:37:16;15.20;99.90
25951;DHT22;13748;52.240;6.002;2022-09-02T05:40:00;16.10;99.90
25951;DHT22;13748;52.240;6.002;2022-09-02T05:42:56;15.30;99.90
25951;DHT22;13748;52.240;6.002;2022-09-02T05:45:33;15.20;99.90
25951;DHT22;13748;52.240;6.002;2022-09-02T05:48:01;15.80;99.90
25951;DHT22;13748;52.240;6.002;2022-09-02T05:50:49;15.40;99.90
25951;DHT22;13748;52.240;6.002;2022-09-02T05:56:04;15.50;99.90
25951;DHT22;13748;52.240;6.002;2022-09-02T05:58:34;16.00;99.90
25951;DHT22;13748;52.240;6.002;2022-09-02T06:01:07;15.40;99.90
25951;DHT22;13748;52.240;6.002;2022-09-02T06:03:37;15.70;99.90
25951;DHT22;13748;52.240;6.002;2022-09-02T06:06:04;15.80;99.90
25951;DHT22;13748;52.240;6.002;2022-09-02T06:08:33;16.00;99.90
25951;DHT22;13748;52.240;6.002;2022-09-02T06:11:01;16.00;99.90
25951;DHT22;13748;52.240;6.002;2022-09-02T06:13:30;16.40;99.90
25951;DHT22;13748;52.240;6.002;2022-09-02T06:15:57;16.40;99.90
25951;DHT22;13748;52.240;6.002;2022-09-02T06:18:24;16.40;99.90
25951;DHT22;13748;52.240;6.002;2022-09-02T06:20:52;16.60;99.90
25951;DHT22;13748;52.240;6.002;2022-09-02T06:23:19;16.60;99.90
25951;DHT22;13748;52.240;6.002;2022-09-02T06:25:48;16.80;99.90
25951;DHT22;13748;52.240;6.002;2022-09-02T06:28:15;17.80;99.90
25951;DHT22;13748;52.240;6.002;2022-09-02T06:30:44;17.00;99.90
25951;DHT22;13748;52.240;6.002;2022-09-02T06:33:11;17.30;99.90
25951;DHT22;13748;52.240;6.002;2022-09-02T06:35:40;17.40;99.90
25951;DHT22;13748;52.240;6.002;2022-09-02T06:38:09;17.90;99.90
25951;DHT22;13748;52.240;6.002;2022-09-02T06:40:45;17.70;99.90
25951;DHT22;13748;52.240;6.002;2022-09-02T06:43:12;17.70;99.90
25951;DHT22;13748;52.240;6.002;2022-09-02T06:48:08;18.00;99.90
25951;DHT22;13748;52.240;6.002;2022-09-02T06:50:43;18.30;99.90
25951;DHT22;13748;52.240;6.002;2022-09-02T06:53:11;18.60;99.90
25951;DHT22;13748;52.240;6.002;2022-09-02T06:55:41;18.60;99.90
25951;DHT22;13748;52.240;6.002;2022-09-02T06:58:09;18.80;99.90
25951;DHT22;13748;52.240;6.002;2022-09-02T07:00:37;18.60;99.90
25951;DHT22;13748;52.240;6.002;2022-09-02T07:03:05;18.80;99.90
25951;DHT22;13748;52.240;6.002;2022-09-02T07:06:04;18.90;99.90
25951;DHT22;13748;52.240;6.002;2022-09-02T07:08:36;19.00;99.90
25951;DHT22;13748;52.240;6.002;2022-09-02T07:11:05;19.00;99.90
25951;DHT22;13748;52.240;6.002;2022-09-02T07:13:33;19.00;99.90
25951;DHT22;13748;52.240;6.002;2022-09-02T07:16:00;19.20;99.90
25951;DHT22;13748;52.240;6.002;2022-09-02T07:18:27;19.30;99.90
25951;DHT22;13748;52.240;6.002;2022-09-02T07:20:54;19.30;99.90
25951;DHT22;13748;52.240;6.002;2022-09-02T07:23:21;19.10;99.90
25951;DHT22;13748;52.240;6.002;2022-09-02T07:25:48;19.20;99.90
25951;DHT22;13748;52.240;6.002;2022-09-02T07:28:15;19.20;99.90
25951;DHT22;13748;52.240;6.002;2022-09-02T07:30:43;19.40;99.90
25951;DHT22;13748;52.240;6.002;2022-09-02T07:33:11;19.40;99.90
25951;DHT22;13748;52.240;6.002;2022-09-02T07:35:40;19.50;99.90
25951;DHT22;13748;52.240;6.002;2022-09-02T07:38:09;19.60;99.90
25951;DHT22;13748;52.240;6.002;2022-09-02T07:40:37;19.70;99.90
25951;DHT22;13748;52.240;6.002;2022-09-02T07:43:07;19.90;99.90
25951;DHT22;13748;52.240;6.002;2022-09-02T07:45:35;20.00;99.90
25951;DHT22;13748;52.240;6.002;2022-09-02T07:48:04;20.10;99.90
25951;DHT22;13748;52.240;6.002;2022-09-02T07:50:35;20.20;99.90
25951;DHT22;13748;52.240;6.002;2022-09-02T07:53:03;20.50;99.90
25951;DHT22;13748;52.240;6.002;2022-09-02T07:55:35;20.90;99.90
25951;DHT22;13748;52.240;6.002;2022-09-02T07:58:02;21.10;99.90
25951;DHT22;13748;52.240;6.002;2022-09-02T08:00:30;21.20;99.90
25951;DHT22;13748;52.240;6.002;2022-09-02T08:02:57;21.30;99.90
25951;DHT22;13748;52.240;6.002;2022-09-02T08:05:25;21.20;99.90
25951;DHT22;13748;52.240;6.002;2022-09-02T08:07:53;21.20;99.90
25951;DHT22;13748;52.240;6.002;2022-09-02T08:10:20;21.20;99.90
25951;DHT22;13748;52.240;6.002;2022-09-02T08:12:47;21.20;99.90
25951;DHT22;13748;52.240;6.002;2022-09-02T08:15:15;21.30;99.90
25951;DHT22;13748;52.240;6.002;2022-09-02T08:17:42;21.20;99.90
25951;DHT22;13748;52.240;6.002;2022-09-02T08:20:12;21.20;99.90
25951;DHT22;13748;52.240;6.002;2022-09-02T08:22:40;20.20;99.90
25951;DHT22;13748;52.240;6.002;2022-09-02T08:25:07;21.00;99.90
25951;DHT22;13748;52.240;6.002;2022-09-02T08:27:35;21.10;99.90
25951;DHT22;13748;52.240;6.002;2022-09-02T08:30:04;21.20;99.90
25951;DHT22;13748;52.240;6.002;2022-09-02T08:32:31;21.40;99.90
25951;DHT22;13748;52.240;6.002;2022-09-02T08:35:02;21.40;99.90
25951;DHT22;13748;52.240;6.002;2022-09-02T08:37:32;21.40;99.70
25951;DHT22;13748;52.240;6.002;2022-09-02T08:40:00;21.30;99.60
25951;DHT22;13748;52.240;6.002;2022-09-02T08:42:33;21.30;99.60
25951;DHT22;13748;52.240;6.002;2022-09-02T08:45:13;21.20;99.90
25951;DHT22;13748;52.240;6.002;2022-09-02T08:47:48;21.20;99.90
25951;DHT22;13748;52.240;6.002;2022-09-02T08:50:17;21.40;99.90
25951;DHT22;13748;52.240;6.002;2022-09-02T08:53:06;21.60;99.90
25951;DHT22;13748;52.240;6.002;2022-09-02T08:55:47;22.20;99.90
25951;DHT22;13748;52.240;6.002;2022-09-02T08:58:18;22.90;99.00
25951;DHT22;13748;52.240;6.002;2022-09-02T09:01:02;23.60;97.70
25951;DHT22;13748;52.240;6.002;2022-09-02T09:10:08;25.00;94.50
25951;DHT22;13748;52.240;6.002;2022-09-02T09:17:57;25.70;92.00
25951;DHT22;13748;52.240;6.002;2022-09-02T09:20:27;25.70;91.50
25951;DHT22;13748;52.240;6.002;2022-09-02T09:22:57;25.70;91.40
25951;DHT22;13748;52.240;6.002;2022-09-02T09:25:25;25.70;91.00
25951;DHT22;13748;52.240;6.002;2022-09-02T09:27:58;25.70;90.80
25951;DHT22;13748;52.240;6.002;2022-09-02T09:30:27;25.70;90.60
25951;DHT22;13748;52.240;6.002;2022-09-02T09:32:58;25.70;90.40
25951;DHT22;13748;52.240;6.002;2022-09-02T09:35:26;25.60;90.40
25951;DHT22;13748;52.240;6.002;2022-09-02T09:37:55;25.60;90.70
25951;DHT22;13748;52.240;6.002;2022-09-02T09:40:40;25.70;90.60
25951;DHT22;13748;52.240;6.002;2022-09-02T09:45:48;25.70;90.60
25951;DHT22;13748;52.240;6.002;2022-09-02T09:53:23;25.90;89.40
25951;DHT22;13748;52.240;6.002;2022-09-02T09:56:02;25.90;89.10
25951;DHT22;13748;52.240;6.002;2022-09-02T10:01:32;25.90;89.40
25951;DHT22;13748;52.240;6.002;2022-09-02T10:04:09;26.10;88.70
25951;DHT22;13748;52.240;6.002;2022-09-02T10:06:56;26.30;88.20
25951;DHT22;13748;52.240;6.002;2022-09-02T10:09:34;26.30;87.70
25951;DHT22;13748;52.240;6.002;2022-09-02T10:14:43;26.40;86.70
25951;DHT22;13748;52.240;6.002;2022-09-02T10:17:50;26.40;86.90
25951;DHT22;13748;52.240;6.002;2022-09-02T10:23:31;26.30;87.00
25951;DHT22;13748;52.240;6.002;2022-09-02T10:37:23;26.60;86.40
25951;DHT22;13748;52.240;6.002;2022-09-02T10:42:32;26.70;85.90
25951;DHT22;13748;52.240;6.002;2022-09-02T10:48:29;26.90;85.00
25951;DHT22;13748;52.240;6.002;2022-09-02T10:56:33;26.70;84.50
25951;DHT22;13748;52.240;6.002;2022-09-02T10:59:15;26.70;84.30
25951;DHT22;13748;52.240;6.002;2022-09-02T11:01:51;26.70;84.70
25951;DHT22;13748;52.240;6.002;2022-09-02T11:04:34;26.80;85.00
25951;DHT22;13748;52.240;6.002;2022-09-02T11:07:07;26.90;84.70
25951;DHT22;13748;52.240;6.002;2022-09-02T11:10:04;27.00;84.30
25951;DHT22;13748;52.240;6.002;2022-09-02T11:12:40;27.10;84.50
25951;DHT22;13748;52.240;6.002;2022-09-02T11:18:12;27.20;84.00
25951;DHT22;13748;52.240;6.002;2022-09-02T11:20:48;27.30;83.50
25951;DHT22;13748;52.240;6.002;2022-09-02T11:23:44;27.40;83.40
25951;DHT22;13748;52.240;6.002;2022-09-02T11:26:35;27.50;82.70
25951;DHT22;13748;52.240;6.002;2022-09-02T11:29:28;27.50;82.10
25951;DHT22;13748;52.240;6.002;2022-09-02T11:32:06;27.50;81.20
25951;DHT22;13748;52.240;6.002;2022-09-02T11:34:40;27.50;81.30
25951;DHT22;13748;52.240;6.002;2022-09-02T11:37:12;27.50;81.00
25951;DHT22;13748;52.240;6.002;2022-09-02T11:39:53;27.60;80.30
25951;DHT22;13748;52.240;6.002;2022-09-02T11:42:58;27.60;79.70
25951;DHT22;13748;52.240;6.002;2022-09-02T11:53:54;28.00;76.30
25951;DHT22;13748;52.240;6.002;2022-09-02T11:56:24;28.00;75.90
25951;DHT22;13748;52.240;6.002;2022-09-02T11:58:54;28.10;75.40
25951;DHT22;13748;52.240;6.002;2022-09-02T12:01:28;28.00;75.20
25951;DHT22;13748;52.240;6.002;2022-09-02T12:09:48;27.70;75.40
25951;DHT22;13748;52.240;6.002;2022-09-02T12:23:08;27.90;74.90
25951;DHT22;13748;52.240;6.002;2022-09-02T12:25:47;28.00;73.70
25951;DHT22;13748;52.240;6.002;2022-09-02T12:28:28;28.30;72.40
25951;DHT22;13748;52.240;6.002;2022-09-02T12:33:32;28.80;71.00
25951;DHT22;13748;52.240;6.002;2022-09-02T12:35:59;28.90;70.30
25951;DHT22;13748;52.240;6.002;2022-09-02T12:38:39;28.80;69.90
25951;DHT22;13748;52.240;6.002;2022-09-02T12:49:04;28.50;68.10
25951;DHT22;13748;52.240;6.002;2022-09-02T12:54:22;28.20;67.20
25951;DHT22;13748;52.240;6.002;2022-09-02T12:56:50;28.20;67.20
25951;DHT22;13748;52.240;6.002;2022-09-02T12:59:27;28.00;67.20
25951;DHT22;13748;52.240;6.002;2022-09-02T13:04:37;27.90;66.90
25951;DHT22;13748;52.240;6.002;2022-09-02T13:07:40;27.90;68.00
25951;DHT22;13748;52.240;6.002;2022-09-02T13:10:47;27.90;68.20
25951;DHT22;13748;52.240;6.002;2022-09-02T13:16:08;28.00;66.80
25951;DHT22;13748;52.240;6.002;2022-09-02T13:27:40;28.00;64.20
25951;DHT22;13748;52.240;6.002;2022-09-02T13:30:14;27.90;63.80
25951;DHT22;13748;52.240;6.002;2022-09-02T13:32:42;27.70;63.90
25951;DHT22;13748;52.240;6.002;2022-09-02T13:35:18;27.60;64.00
25951;DHT22;13748;52.240;6.002;2022-09-02T13:37:57;27.50;64.10
25951;DHT22;13748;52.240;6.002;2022-09-02T13:40:29;27.40;64.60
25951;DHT22;13748;52.240;6.002;2022-09-02T13:43:01;27.40;65.10
25951;DHT22;13748;52.240;6.002;2022-09-02T13:45:33;27.50;65.30
25951;DHT22;13748;52.240;6.002;2022-09-02T13:48:06;27.70;65.20
25951;DHT22;13748;52.240;6.002;2022-09-02T13:50:35;27.90;64.80
25951;DHT22;13748;52.240;6.002;2022-09-02T13:53:13;28.10;65.00
25951;DHT22;13748;52.240;6.002;2022-09-02T13:56:05;28.50;64.10
25951;DHT22;13748;52.240;6.002;2022-09-02T13:58:48;28.60;63.70
25951;DHT22;13748;52.240;6.002;2022-09-02T14:01:26;28.50;63.00
25951;DHT22;13748;52.240;6.002;2022-09-02T14:03:56;28.30;63.30
25951;DHT22;13748;52.240;6.002;2022-09-02T14:06:33;28.00;64.10
25951;DHT22;13748;52.240;6.002;2022-09-02T14:09:06;27.80;65.00
25951;DHT22;13748;52.240;6.002;2022-09-02T14:11:53;27.70;65.00
25951;DHT22;13748;52.240;6.002;2022-09-02T14:14:23;27.60;64.40
25951;DHT22;13748;52.240;6.002;2022-09-02T14:16:50;27.50;64.90
25951;DHT22;13748;52.240;6.002;2022-09-02T14:21:57;27.40;66.30
25951;DHT22;13748;52.240;6.002;2022-09-02T14:24:27;27.40;66.30
25951;DHT22;13748;52.240;6.002;2022-09-02T14:26:56;27.30;66.50
25951;DHT22;13748;52.240;6.002;2022-09-02T14:29:26;27.30;66.90
25951;DHT22;13748;52.240;6.002;2022-09-02T14:32:14;27.40;67.00
25951;DHT22;13748;52.240;6.002;2022-09-02T14:34:47;27.40;67.10
25951;DHT22;13748;52.240;6.002;2022-09-02T14:37:25;27.40;67.40
25951;DHT22;13748;52.240;6.002;2022-09-02T14:40:09;27.50;66.60
25951;DHT22;13748;52.240;6.002;2022-09-02T14:42:46;27.50;66.40
25951;DHT22;13748;52.240;6.002;2022-09-02T14:45:26;27.40;66.50
25951;DHT22;13748;52.240;6.002;2022-09-02T14:47:54;27.30;66.90
25951;DHT22;13748;52.240;6.002;2022-09-02T14:50:26;27.20;67.30
25951;DHT22;13748;52.240;6.002;2022-09-02T14:52:59;27.10;67.60
25951;DHT22;13748;52.240;6.002;2022-09-02T14:55:49;27.10;67.70
25951;DHT22;13748;52.240;6.002;2022-09-02T14:58:19;27.00;67.50
25951;DHT22;13748;52.240;6.002;2022-09-02T15:00:54;26.90;67.70
25951;DHT22;13748;52.240;6.002;2022-09-02T15:03:22;26.90;68.20
25951;DHT22;13748;52.240;6.002;2022-09-02T15:05:50;26.80;68.00
25951;DHT22;13748;52.240;6.002;2022-09-02T15:08:18;26.70;67.80
25951;DHT22;13748;52.240;6.002;2022-09-02T15:10:45;26.70;68.20
25951;DHT22;13748;52.240;6.002;2022-09-02T15:13:33;26.60;68.10
25951;DHT22;13748;52.240;6.002;2022-09-02T15:16:01;26.50;67.90
25951;DHT22;13748;52.240;6.002;2022-09-02T15:18:29;26.40;68.00
25951;DHT22;13748;52.240;6.002;2022-09-02T15:20:56;26.50;68.60
25951;DHT22;13748;52.240;6.002;2022-09-02T15:23:24;26.50;68.10
25951;DHT22;13748;52.240;6.002;2022-09-02T15:25:54;26.50;67.40
25951;DHT22;13748;52.240;6.002;2022-09-02T15:28:21;26.50;67.00
25951;DHT22;13748;52.240;6.002;2022-09-02T15:30:48;26.60;67.10
25951;DHT22;13748;52.240;6.002;2022-09-02T15:33:22;26.80;67.00
25951;DHT22;13748;52.240;6.002;2022-09-02T15:35:49;26.90;66.30
25951;DHT22;13748;52.240;6.002;2022-09-02T15:38:16;27.00;65.80
25951;DHT22;13748;52.240;6.002;2022-09-02T15:40:43;27.10;65.20
25951;DHT22;13748;52.240;6.002;2022-09-02T15:43:11;27.00;65.30
25951;DHT22;13748;52.240;6.002;2022-09-02T15:45:45;26.90;65.10
25951;DHT22;13748;52.240;6.002;2022-09-02T15:48:14;26.80;65.20
25951;DHT22;13748;52.240;6.002;2022-09-02T15:50:41;26.80;65.00
25951;DHT22;13748;52.240;6.002;2022-09-02T15:53:13;26.80;65.10
25951;DHT22;13748;52.240;6.002;2022-09-02T15:55:40;26.70;65.30
25951;DHT22;13748;52.240;6.002;2022-09-02T15:58:07;26.60;65.00
25951;DHT22;13748;52.240;6.002;2022-09-02T16:00:35;26.60;65.00
25951;DHT22;13748;52.240;6.002;2022-09-02T16:03:02;26.60;66.00
25951;DHT22;13748;52.240;6.002;2022-09-02T16:05:30;26.50;65.30
25951;DHT22;13748;52.240;6.002;2022-09-02T16:07:58;26.50;65.50
25951;DHT22;13748;52.240;6.002;2022-09-02T16:10:25;26.50;65.80
25951;DHT22;13748;52.240;6.002;2022-09-02T16:12:52;26.40;66.00
25951;DHT22;13748;52.240;6.002;2022-09-02T16:15:19;26.40;65.90
25951;DHT22;13748;52.240;6.002;2022-09-02T16:17:50;26.30;65.80
25951;DHT22;13748;52.240;6.002;2022-09-02T16:20:17;26.30;65.80
25951;DHT22;13748;52.240;6.002;2022-09-02T16:22:47;26.20;65.70
25951;DHT22;13748;52.240;6.002;2022-09-02T16:25:14;26.20;65.70
25951;DHT22;13748;52.240;6.002;2022-09-02T16:27:41;26.20;65.90
25951;DHT22;13748;52.240;6.002;2022-09-02T16:30:22;26.10;66.00
25951;DHT22;13748;52.240;6.002;2022-09-02T16:32:49;26.10;66.40
25951;DHT22;13748;52.240;6.002;2022-09-02T16:35:17;26.10;66.80
25951;DHT22;13748;52.240;6.002;2022-09-02T16:37:44;26.10;66.90
25951;DHT22;13748;52.240;6.002;2022-09-02T16:40:11;26.00;67.30
25951;DHT22;13748;52.240;6.002;2022-09-02T16:42:47;26.00;67.30
25951;DHT22;13748;52.240;6.002;2022-09-02T16:45:14;26.00;67.60
25951;DHT22;13748;52.240;6.002;2022-09-02T16:47:41;25.90;68.10
25951;DHT22;13748;52.240;6.002;2022-09-02T16:50:08;25.90;68.50
25951;DHT22;13748;52.240;6.002;2022-09-02T16:52:37;25.90;69.00
25951;DHT22;13748;52.240;6.002;2022-09-02T16:55:07;25.80;68.80
25951;DHT22;13748;52.240;6.002;2022-09-02T16:57:33;25.80;68.80
25951;DHT22;13748;52.240;6.002;2022-09-02T17:00:01;25.70;69.00
25951;DHT22;13748;52.240;6.002;2022-09-02T17:02:27;25.70;70.10
25951;DHT22;13748;52.240;6.002;2022-09-02T17:04:56;25.60;70.10
25951;DHT22;13748;52.240;6.002;2022-09-02T17:07:23;25.60;70.30
25951;DHT22;13748;52.240;6.002;2022-09-02T17:09:49;25.50;70.60
25951;DHT22;13748;52.240;6.002;2022-09-02T17:12:16;25.40;70.90
25951;DHT22;13748;52.240;6.002;2022-09-02T17:14:43;25.30;70.30
25951;DHT22;13748;52.240;6.002;2022-09-02T17:17:10;25.20;70.30
25951;DHT22;13748;52.240;6.002;2022-09-02T17:19:42;25.10;70.50
25951;DHT22;13748;52.240;6.002;2022-09-02T17:22:11;25.10;70.70
25951;DHT22;13748;52.240;6.002;2022-09-02T17:24:38;25.00;71.60
25951;DHT22;13748;52.240;6.002;2022-09-02T17:27:07;24.90;72.50
25951;DHT22;13748;52.240;6.002;2022-09-02T17:29:34;24.80;73.30
25951;DHT22;13748;52.240;6.002;2022-09-02T17:32:17;24.60;73.30
25951;DHT22;13748;52.240;6.002;2022-09-02T17:34:48;24.50;74.00
25951;DHT22;13748;52.240;6.002;2022-09-02T17:37:17;24.30;73.90
25951;DHT22;13748;52.240;6.002;2022-09-02T17:39:48;24.10;74.20
25951;DHT22;13748;52.240;6.002;2022-09-02T17:42:15;23.90;74.60
25951;DHT22;13748;52.240;6.002;2022-09-02T17:44:45;23.80;75.00
25951;DHT22;13748;52.240;6.002;2022-09-02T17:47:20;23.70;75.20
25951;DHT22;13748;52.240;6.002;2022-09-02T17:49:47;23.60;75.60
25951;DHT22;13748;52.240;6.002;2022-09-02T17:52:22;23.50;75.60
25951;DHT22;13748;52.240;6.002;2022-09-02T17:54:51;23.40;75.20
25951;DHT22;13748;52.240;6.002;2022-09-02T18:10:54;22.90;75.60
25951;DHT22;13748;52.240;6.002;2022-09-02T18:13:52;22.70;75.50
25951;DHT22;13748;52.240;6.002;2022-09-02T18:19:11;22.60;76.30
25951;DHT22;13748;52.240;6.002;2022-09-02T18:30:09;22.40;76.50